sensor_id;sensor_type;location;lat;lon;timestamp;pressure;altitude;pressure_sealevel;temperature;humidity
72428;BME280;60419;48.880;18.036;2022-12-07T00:00:18;98805.69;;;2.54;82.04
72428;BME280;60419;48.880;18.036;2022-12-07T00:03:04;98802.94;;;2.86;81.30
72428;BME280;60419;48.880;18.036;2022-12-07T00:05:49;98809.84;;;2.82;81.05
72428;BME280;60419;48.880;18.036;2022-12-07T00:08:35;98807.00;;;3.14;80.38
72428;BME280;60419;48.880;18.036;2022-12-07T00:11:22;98792.53;;;2.94;80.42
72428;BME280;60419;48.880;18.036;2022-12-07T00:14:12;98789.13;;;3.14;79.96
72428;BME280;60419;48.880;18.036;2022-12-07T00:16:57;98785.63;;;3.09;79.52
72428;BME280;60419;48.880;18.036;2022-12-07T00:19:42;98792.59;;;3.10;79.36
72428;BME280;60419;48.880;18.036;2022-12-07T00:22:28;98792.38;;;3.27;78.87
72428;BME280;60419;48.880;18.036;2022-12-07T00:25:13;98794.13;;;2.90;80.43
72428;BME280;60419;48.880;18.036;2022-12-07T00:27:58;98788.50;;;2.82;80.07
72428;BME280;60419;48.880;18.036;2022-12-07T00:30:44;98792.88;;;3.13;79.76
72428;BME280;60419;48.880;18.036;2022-12-07T00:33:29;98788.88;;;3.21;79.27
72428;BME280;60419;48.880;18.036;2022-12-07T00:36:17;98773.66;;;3.22;79.18
72428;BME280;60419;48.880;18.036;2022-12-07T00:39:03;98783.84;;;3.40;78.62
72428;BME280;60419;48.880;18.036;2022-12-07T00:41:48;98775.03;;;3.39;78.35
72428;BME280;60419;48.880;18.036;2022-12-07T00:44:33;98772.63;;;3.43;78.29
72428;BME280;60419;48.880;18.036;2022-12-07T00:47:19;98779.84;;;3.37;78.57
72428;BME280;60419;48.880;18.036;2022-12-07T00:50:04;98778.00;;;3.38;78.84
72428;BME280;60419;48.880;18.036;2022-12-07T00:52:51;98769.41;;;3.15;78.84
72428;BME280;60419;48.880;18.036;2022-12-07T00:55:37;98767.78;;;3.14;79.24
72428;BME280;60419;48.880;18.036;2022-12-07T00:58:23;98774.41;;;2.97;79.63
72428;BME280;60419;48.880;18.036;2022-12-07T01:01:09;98767.78;;;3.25;78.44
72428;BME280;60419;48.880;18.036;2022-12-07T01:03:55;98775.03;;;3.39;78.88
72428;BME280;60419;48.880;18.036;2022-12-07T01:06:40;98772.66;;;3.33;78.35
72428;BME280;60419;48.880;18.036;2022-12-07T01:09:26;98774.16;;;3.08;78.31
72428;BME280;60419;48.880;18.036;2022-12-07T01:12:11;98775.19;;;2.92;78.98
72428;BME280;60419;48.880;18.036;2022-12-07T01:14:57;98772.53;;;2.92;80.00
72428;BME280;60419;48.880;18.036;2022-12-07T01:17:42;98770.16;;;3.06;78.72
72428;BME280;60419;48.880;18.036;2022-12-07T01:20:28;98763.47;;;3.03;78.02
72428;BME280;60419;48.880;18.036;2022-12-07T01:23:13;98768.00;;;2.98;78.69
72428;BME280;60419;48.880;18.036;2022-12-07T01:26:00;98771.31;;;2.57;80.61
72428;BME280;60419;48.880;18.036;2022-12-07T01:28:47;98768.25;;;2.91;79.33
72428;BME280;60419;48.880;18.036;2022-12-07T01:31:33;98767.94;;;2.77;79.31
72428;BME280;60419;48.880;18.036;2022-12-07T01:34:18;98762.81;;;2.60;80.43
72428;BME280;60419;48.880;18.036;2022-12-07T01:37:03;98765.53;;;2.76;80.29
72428;BME280;60419;48.880;18.036;2022-12-07T01:39:50;98773.78;;;2.74;79.98
72428;BME280;60419;48.880;18.036;2022-12-07T01:42:35;98763.16;;;2.84;79.28
72428;BME280;60419;48.880;18.036;2022-12-07T01:48:27;98758.38;;;2.34;79.95
72428;BME280;60419;48.880;18.036;2022-12-07T01:51:14;98760.97;;;2.66;80.58
72428;BME280;60419;48.880;18.036;2022-12-07T01:54:00;98752.34;;;2.54;80.70
72428;BME280;60419;48.880;18.036;2022-12-07T01:56:52;98754.19;;;2.48;81.77
72428;BME280;60419;48.880;18.036;2022-12-07T01:59:39;98737.09;;;2.44;80.60
72428;BME280;60419;48.880;18.036;2022-12-07T02:02:31;98754.97;;;2.43;81.07
72428;BME280;60419;48.880;18.036;2022-12-07T02:05:19;98754.25;;;2.58;81.10
72428;BME280;60419;48.880;18.036;2022-12-07T02:08:05;98745.16;;;2.54;81.20
72428;BME280;60419;48.880;18.036;2022-12-07T02:10:50;98727.69;;;2.21;82.23
72428;BME280;60419;48.880;18.036;2022-12-07T02:13:38;98745.97;;;2.60;81.36
72428;BME280;60419;48.880;18.036;2022-12-07T02:19:57;98735.59;;;2.58;81.55
72428;BME280;60419;48.880;18.036;2022-12-07T02:23:00;98738.81;;;2.65;81.05
72428;BME280;60419;48.880;18.036;2022-12-07T02:29:11;98752.09;;;2.55;81.72
72428;BME280;60419;48.880;18.036;2022-12-07T02:32:12;98733.38;;;2.40;81.74
72428;BME280;60419;48.880;18.036;2022-12-07T02:35:06;98745.06;;;2.39;82.65
72428;BME280;60419;48.880;18.036;2022-12-07T02:44:20;98743.78;;;2.46;82.71
72428;BME280;60419;48.880;18.036;2022-12-07T02:47:09;98707.31;;;2.04;83.59
72428;BME280;60419;48.880;18.036;2022-12-07T02:49:57;98732.13;;;2.58;82.53
72428;BME280;60419;48.880;18.036;2022-12-07T02:52:42;98731.56;;;2.56;82.32
72428;BME280;60419;48.880;18.036;2022-12-07T02:55:32;98725.84;;;2.26;83.76
72428;BME280;60419;48.880;18.036;2022-12-07T02:58:33;98734.25;;;2.61;82.87
72428;BME280;60419;48.880;18.036;2022-12-07T03:01:50;98739.03;;;2.54;82.91
72428;BME280;60419;48.880;18.036;2022-12-07T03:04:56;98713.56;;;2.25;83.67
72428;BME280;60419;48.880;18.036;2022-12-07T03:07:55;98729.41;;;2.47;83.12
72428;BME280;60419;48.880;18.036;2022-12-07T03:13:45;98731.69;;;2.23;83.76
72428;BME280;60419;48.880;18.036;2022-12-07T03:16:36;98734.91;;;2.31;83.75
72428;BME280;60419;48.880;18.036;2022-12-07T03:19:26;98730.75;;;2.50;82.47
72428;BME280;60419;48.880;18.036;2022-12-07T03:22:13;98731.09;;;2.74;81.70
72428;BME280;60419;48.880;18.036;2022-12-07T03:25:04;98728.47;;;2.79;81.08
72428;BME280;60419;48.880;18.036;2022-12-07T03:27:55;98731.31;;;2.57;82.08
72428;BME280;60419;48.880;18.036;2022-12-07T03:31:14;98733.91;;;2.42;83.33
72428;BME280;60419;48.880;18.036;2022-12-07T03:34:04;98724.13;;;2.58;82.43
72428;BME280;60419;48.880;18.036;2022-12-07T03:37:05;98725.47;;;2.60;82.87
72428;BME280;60419;48.880;18.036;2022-12-07T03:40:40;98721.28;;;2.85;81.14
72428;BME280;60419;48.880;18.036;2022-12-07T03:43:00;98714.00;;;2.65;82.07
72428;BME280;60419;48.880;18.036;2022-12-07T03:49:26;98725.19;;;2.62;81.93
72428;BME280;60419;48.880;18.036;2022-12-07T03:52:30;98725.50;;;2.70;81.66
72428;BME280;60419;48.880;18.036;2022-12-07T03:55:22;98718.88;;;2.78;81.70
72428;BME280;60419;48.880;18.036;2022-12-07T03:58:16;98690.22;;;2.53;82.27
72428;BME280;60419;48.880;18.036;2022-12-07T04:01:03;98714.31;;;2.79;81.70
72428;BME280;60419;48.880;18.036;2022-12-07T04:03:48;98712.63;;;2.47;82.65
72428;BME280;60419;48.880;18.036;2022-12-07T04:06:33;98688.38;;;2.54;82.23
72428;BME280;60419;48.880;18.036;2022-12-07T04:09:19;98716.31;;;2.46;83.51
72428;BME280;60419;48.880;18.036;2022-12-07T04:12:05;98675.28;;;1.94;83.81
72428;BME280;60419;48.880;18.036;2022-12-07T04:14:50;98710.63;;;2.22;83.97
72428;BME280;60419;48.880;18.036;2022-12-07T04:17:36;98715.22;;;2.37;83.59
72428;BME280;60419;48.880;18.036;2022-12-07T04:20:21;98694.97;;;2.41;82.73
72428;BME280;60419;48.880;18.036;2022-12-07T04:23:07;98711.06;;;2.66;82.62
72428;BME280;60419;48.880;18.036;2022-12-07T04:25:52;98707.34;;;2.67;82.79
72428;BME280;60419;48.880;18.036;2022-12-07T04:28:37;98700.84;;;2.43;82.56
72428;BME280;60419;48.880;18.036;2022-12-07T04:31:23;98706.22;;;2.53;82.93
72428;BME280;60419;48.880;18.036;2022-12-07T04:34:08;98701.66;;;2.43;83.15
72428;BME280;60419;48.880;18.036;2022-12-07T04:36:54;98708.25;;;2.31;83.38
72428;BME280;60419;48.880;18.036;2022-12-07T04:39:40;98717.13;;;2.46;83.28
72428;BME280;60419;48.880;18.036;2022-12-07T04:42:25;98715.91;;;2.80;82.06
72428;BME280;60419;48.880;18.036;2022-12-07T04:45:10;98717.53;;;2.91;81.34
72428;BME280;60419;48.880;18.036;2022-12-07T04:47:56;98714.88;;;2.81;81.58
72428;BME280;60419;48.880;18.036;2022-12-07T04:50:41;98715.38;;;2.83;81.41
72428;BME280;60419;48.880;18.036;2022-12-07T04:53:26;98716.44;;;2.71;81.65
72428;BME280;60419;48.880;18.036;2022-12-07T04:56:12;98697.78;;;2.77;81.46
72428;BME280;60419;48.880;18.036;2022-12-07T04:58:58;98725.06;;;3.04;80.16
72428;BME280;60419;48.880;18.036;2022-12-07T05:01:43;98719.19;;;3.02;79.84
72428;BME280;60419;48.880;18.036;2022-12-07T05:04:29;98728.59;;;3.51;78.31
72428;BME280;60419;48.880;18.036;2022-12-07T05:07:14;98724.59;;;3.74;77.42
72428;BME280;60419;48.880;18.036;2022-12-07T05:10:00;98724.88;;;3.77;76.32
72428;BME280;60419;48.880;18.036;2022-12-07T05:12:45;98731.25;;;3.61;77.03
72428;BME280;60419;48.880;18.036;2022-12-07T05:15:31;98718.91;;;3.09;78.85
72428;BME280;60419;48.880;18.036;2022-12-07T05:18:16;98710.91;;;3.04;79.13
72428;BME280;60419;48.880;18.036;2022-12-07T05:21:01;98720.06;;;3.49;77.79
72428;BME280;60419;48.880;18.036;2022-12-07T05:23:47;98722.44;;;3.55;76.93
72428;BME280;60419;48.880;18.036;2022-12-07T05:26:33;98721.38;;;3.21;77.24
72428;BME280;60419;48.880;18.036;2022-12-07T05:29:19;98721.09;;;3.43;77.00
72428;BME280;60419;48.880;18.036;2022-12-07T05:32:04;98725.31;;;3.03;79.56
72428;BME280;60419;48.880;18.036;2022-12-07T05:34:50;98730.91;;;2.96;79.09
72428;BME280;60419;48.880;18.036;2022-12-07T05:37:35;98726.41;;;3.02;79.30
72428;BME280;60419;48.880;18.036;2022-12-07T05:40:20;98729.78;;;2.77;78.81
72428;BME280;60419;48.880;18.036;2022-12-07T05:43:06;98726.88;;;2.83;79.29
72428;BME280;60419;48.880;18.036;2022-12-07T05:45:51;98732.50;;;2.87;78.69
72428;BME280;60419;48.880;18.036;2022-12-07T05:48:37;98726.63;;;2.90;78.35
72428;BME280;60419;48.880;18.036;2022-12-07T05:51:22;98730.00;;;2.70;79.03
72428;BME280;60419;48.880;18.036;2022-12-07T05:54:07;98729.72;;;2.61;79.25
72428;BME280;60419;48.880;18.036;2022-12-07T05:56:53;98734.81;;;2.63;79.41
72428;BME280;60419;48.880;18.036;2022-12-07T05:59:39;98732.97;;;2.73;79.03
72428;BME280;60419;48.880;18.036;2022-12-07T06:02:24;98742.34;;;2.81;78.82
72428;BME280;60419;48.880;18.036;2022-12-07T06:05:10;98744.72;;;2.83;79.23
72428;BME280;60419;48.880;18.036;2022-12-07T06:07:55;98748.47;;;2.82;78.84
72428;BME280;60419;48.880;18.036;2022-12-07T06:10:41;98758.53;;;2.64;79.32
72428;BME280;60419;48.880;18.036;2022-12-07T06:13:26;98756.22;;;2.78;78.62
72428;BME280;60419;48.880;18.036;2022-12-07T06:16:12;98744.53;;;3.00;79.28
72428;BME280;60419;48.880;18.036;2022-12-07T06:19:04;98754.22;;;2.53;79.79
72428;BME280;60419;48.880;18.036;2022-12-07T06:21:49;98759.59;;;2.58;79.14
72428;BME280;60419;48.880;18.036;2022-12-07T06:24:35;98761.50;;;2.68;78.91
72428;BME280;60419;48.880;18.036;2022-12-07T06:27:20;98757.75;;;2.64;80.19
72428;BME280;60419;48.880;18.036;2022-12-07T06:30:06;98765.28;;;2.82;78.93
72428;BME280;60419;48.880;18.036;2022-12-07T06:32:53;98759.47;;;3.01;79.23
72428;BME280;60419;48.880;18.036;2022-12-07T06:35:38;98759.47;;;3.06;79.11
72428;BME280;60419;48.880;18.036;2022-12-07T06:38:24;98754.94;;;3.06;77.74
72428;BME280;60419;48.880;18.036;2022-12-07T06:41:09;98770.16;;;3.06;78.08
72428;BME280;60419;48.880;18.036;2022-12-07T06:43:55;98766.13;;;2.93;78.37
72428;BME280;60419;48.880;18.036;2022-12-07T06:46:40;98769.03;;;2.86;78.86
72428;BME280;60419;48.880;18.036;2022-12-07T06:49:26;98768.25;;;2.86;78.34
72428;BME280;60419;48.880;18.036;2022-12-07T06:52:11;98771.50;;;3.03;78.21
72428;BME280;60419;48.880;18.036;2022-12-07T06:54:56;98776.31;;;3.16;77.83
72428;BME280;60419;48.880;18.036;2022-12-07T06:57:42;98779.75;;;2.97;78.51
72428;BME280;60419;48.880;18.036;2022-12-07T07:00:27;98775.69;;;2.84;78.28
72428;BME280;60419;48.880;18.036;2022-12-07T07:03:13;98782.59;;;2.75;79.06
72428;BME280;60419;48.880;18.036;2022-12-07T07:05:58;98768.41;;;2.64;79.04
72428;BME280;60419;48.880;18.036;2022-12-07T07:08:43;98768.00;;;2.98;77.46
72428;BME280;60419;48.880;18.036;2022-12-07T07:11:29;98772.22;;;2.88;78.30
72428;BME280;60419;48.880;18.036;2022-12-07T07:14:14;98754.09;;;2.90;77.24
72428;BME280;60419;48.880;18.036;2022-12-07T07:17:04;98772.59;;;3.12;76.89
72428;BME280;60419;48.880;18.036;2022-12-07T07:19:49;98777.69;;;3.34;76.16
72428;BME280;60419;48.880;18.036;2022-12-07T07:22:34;98783.84;;;3.40;75.97
72428;BME280;60419;48.880;18.036;2022-12-07T07:25:20;98778.69;;;2.98;77.10
72428;BME280;60419;48.880;18.036;2022-12-07T07:28:05;98776.81;;;2.98;77.18
72428;BME280;60419;48.880;18.036;2022-12-07T07:30:50;98782.69;;;3.00;76.63
72428;BME280;60419;48.880;18.036;2022-12-07T07:33:36;98781.88;;;2.94;77.01
72428;BME280;60419;48.880;18.036;2022-12-07T07:36:21;98765.16;;;2.57;78.12
72428;BME280;60419;48.880;18.036;2022-12-07T07:39:07;98788.72;;;2.75;78.22
72428;BME280;60419;48.880;18.036;2022-12-07T07:41:52;98783.69;;;2.79;77.55
72428;BME280;60419;48.880;18.036;2022-12-07T07:44:37;98774.41;;;2.91;76.88
72428;BME280;60419;48.880;18.036;2022-12-07T07:47:23;98789.66;;;3.11;76.95
72428;BME280;60419;48.880;18.036;2022-12-07T07:50:08;98791.81;;;3.20;76.53
72428;BME280;60419;48.880;18.036;2022-12-07T07:52:54;98790.19;;;3.13;76.72
72428;BME280;60419;48.880;18.036;2022-12-07T07:55:41;98779.00;;;3.22;76.38
72428;BME280;60419;48.880;18.036;2022-12-07T07:58:26;98785.47;;;3.46;74.44
72428;BME280;60419;48.880;18.036;2022-12-07T08:01:12;98784.88;;;3.19;75.42
72428;BME280;60419;48.880;18.036;2022-12-07T08:03:58;98785.44;;;3.31;75.22
72428;BME280;60419;48.880;18.036;2022-12-07T08:06:43;98793.69;;;3.19;75.60
72428;BME280;60419;48.880;18.036;2022-12-07T08:09:29;98790.44;;;3.02;75.78
72428;BME280;60419;48.880;18.036;2022-12-07T08:12:14;98794.50;;;3.30;76.14
72428;BME280;60419;48.880;18.036;2022-12-07T08:14:59;98799.06;;;3.29;75.63
72428;BME280;60419;48.880;18.036;2022-12-07T08:17:45;98801.66;;;3.14;75.79
72428;BME280;60419;48.880;18.036;2022-12-07T08:20:31;98803.03;;;3.22;75.09
72428;BME280;60419;48.880;18.036;2022-12-07T08:23:17;98797.47;;;3.28;75.12
72428;BME280;60419;48.880;18.036;2022-12-07T08:26:05;98804.59;;;3.07;75.63
72428;BME280;60419;48.880;18.036;2022-12-07T08:28:52;98804.88;;;3.11;75.87
72428;BME280;60419;48.880;18.036;2022-12-07T08:31:38;98808.88;;;3.13;75.81
72428;BME280;60419;48.880;18.036;2022-12-07T08:34:23;98799.28;;;3.07;75.40
72428;BME280;60419;48.880;18.036;2022-12-07T08:37:08;98811.00;;;3.11;75.16
72428;BME280;60419;48.880;18.036;2022-12-07T08:39:54;98809.97;;;3.18;74.85
72428;BME280;60419;48.880;18.036;2022-12-07T08:42:39;98815.06;;;3.24;75.14
72428;BME280;60419;48.880;18.036;2022-12-07T08:45:25;98817.47;;;3.26;75.44
72428;BME280;60419;48.880;18.036;2022-12-07T08:48:12;98810.53;;;3.30;75.69
72428;BME280;60419;48.880;18.036;2022-12-07T08:51:01;98817.19;;;3.22;75.02
72428;BME280;60419;48.880;18.036;2022-12-07T08:53:46;98821.75;;;3.37;74.75
72428;BME280;60419;48.880;18.036;2022-12-07T08:56:33;98806.72;;;3.05;75.65
72428;BME280;60419;48.880;18.036;2022-12-07T08:59:19;98816.31;;;3.01;75.73
72428;BME280;60419;48.880;18.036;2022-12-07T09:02:05;98817.69;;;3.14;75.39
72428;BME280;60419;48.880;18.036;2022-12-07T09:04:51;98815.03;;;3.14;75.28
72428;BME280;60419;48.880;18.036;2022-12-07T09:07:37;98821.69;;;3.16;76.10
72428;BME280;60419;48.880;18.036;2022-12-07T09:10:23;98817.16;;;3.12;75.67
72428;BME280;60419;48.880;18.036;2022-12-07T09:13:09;98820.59;;;3.02;76.58
72428;BME280;60419;48.880;18.036;2022-12-07T09:15:54;98821.66;;;3.06;76.02
72428;BME280;60419;48.880;18.036;2022-12-07T09:18:39;98819.22;;;2.94;76.62
72428;BME280;60419;48.880;18.036;2022-12-07T09:21:25;98813.91;;;3.00;76.14
72428;BME280;60419;48.880;18.036;2022-12-07T09:24:12;98821.38;;;2.98;76.81
72428;BME280;60419;48.880;18.036;2022-12-07T09:26:57;98814.19;;;3.08;76.94
72428;BME280;60419;48.880;18.036;2022-12-07T09:29:43;98821.50;;;3.33;76.32
72428;BME280;60419;48.880;18.036;2022-12-07T09:32:28;98816.38;;;3.22;77.14
72428;BME280;60419;48.880;18.036;2022-12-07T09:35:14;98820.72;;;3.58;75.28
72428;BME280;60419;48.880;18.036;2022-12-07T09:37:59;98817.81;;;3.55;75.67
72428;BME280;60419;48.880;18.036;2022-12-07T09:40:45;98783.59;;;3.42;75.37
72428;BME280;60419;48.880;18.036;2022-12-07T09:43:31;98815.16;;;3.70;75.15
72428;BME280;60419;48.880;18.036;2022-12-07T09:46:17;98799.09;;;3.55;75.84
72428;BME280;60419;48.880;18.036;2022-12-07T09:49:05;98801.81;;;3.86;74.83
72428;BME280;60419;48.880;18.036;2022-12-07T09:52:19;98802.00;;;3.43;75.35
72428;BME280;60419;48.880;18.036;2022-12-07T09:55:28;98801.22;;;3.53;75.12
72428;BME280;60419;48.880;18.036;2022-12-07T09:58:25;98794.03;;;3.74;74.64
72428;BME280;60419;48.880;18.036;2022-12-07T10:01:17;98787.34;;;3.56;75.43
72428;BME280;60419;48.880;18.036;2022-12-07T10:04:12;98789.78;;;3.73;75.49
72428;BME280;60419;48.880;18.036;2022-12-07T10:07:01;98778.78;;;3.38;75.62
72428;BME280;60419;48.880;18.036;2022-12-07T10:09:46;98786.03;;;3.69;75.22
72428;BME280;60419;48.880;18.036;2022-12-07T10:12:55;98783.31;;;3.43;74.87
72428;BME280;60419;48.880;18.036;2022-12-07T10:18:41;98778.44;;;3.14;75.80
72428;BME280;60419;48.880;18.036;2022-12-07T10:21:27;98771.97;;;2.90;76.78
72428;BME280;60419;48.880;18.036;2022-12-07T10:26:59;98777.06;;;2.91;76.84
72428;BME280;60419;48.880;18.036;2022-12-07T10:29:50;98769.41;;;3.15;76.22
72428;BME280;60419;48.880;18.036;2022-12-07T10:32:36;98773.97;;;3.35;75.19
72428;BME280;60419;48.880;18.036;2022-12-07T10:38:16;98753.38;;;3.15;75.09
72428;BME280;60419;48.880;18.036;2022-12-07T10:41:06;98766.19;;;3.13;75.87
72428;BME280;60419;48.880;18.036;2022-12-07T10:43:55;98750.72;;;3.15;75.88
72428;BME280;60419;48.880;18.036;2022-12-07T11:02:06;98743.78;;;3.40;75.27
72428;BME280;60419;48.880;18.036;2022-12-07T11:10:59;98735.78;;;3.30;75.29
72428;BME280;60419;48.880;18.036;2022-12-07T11:19:47;98739.75;;;3.22;74.55
72428;BME280;60419;48.880;18.036;2022-12-07T11:26:39;98732.81;;;3.16;74.75
72428;BME280;60419;48.880;18.036;2022-12-07T11:32:50;98729.38;;;3.21;75.14
72428;BME280;60419;48.880;18.036;2022-12-07T11:38:33;98719.75;;;3.25;74.77
72428;BME280;60419;48.880;18.036;2022-12-07T11:41:27;98722.94;;;3.22;75.72
72428;BME280;60419;48.880;18.036;2022-12-07T11:47:47;98725.91;;;3.46;74.72
72428;BME280;60419;48.880;18.036;2022-12-07T11:50:41;98712.81;;;3.24;74.84
72428;BME280;60419;48.880;18.036;2022-12-07T11:53:33;98717.91;;;3.30;73.66
72428;BME280;60419;48.880;18.036;2022-12-07T11:56:23;98719.78;;;3.50;73.66
72428;BME280;60419;48.880;18.036;2022-12-07T11:59:41;98720.59;;;3.41;73.33
72428;BME280;60419;48.880;18.036;2022-12-07T12:02:38;98719.53;;;3.52;72.99
72428;BME280;60419;48.880;18.036;2022-12-07T12:05:28;98720.31;;;3.52;73.13
72428;BME280;60419;48.880;18.036;2022-12-07T12:08:19;98724.56;;;3.43;73.06
72428;BME280;60419;48.880;18.036;2022-12-07T12:23:35;98718.97;;;3.96;71.64
72428;BME280;60419;48.880;18.036;2022-12-07T12:26:27;98713.88;;;3.89;71.23
72428;BME280;60419;48.880;18.036;2022-12-07T12:32:17;98724.03;;;4.02;71.56
72428;BME280;60419;48.880;18.036;2022-12-07T12:35:29;98727.25;;;3.79;71.82
72428;BME280;60419;48.880;18.036;2022-12-07T12:44:42;98707.50;;;3.39;64.26
72428;BME280;60419;48.880;18.036;2022-12-07T12:48:01;98713.09;;;3.43;61.62
72428;BME280;60419;48.880;18.036;2022-12-07T12:50:46;98713.09;;;3.53;61.15
72428;BME280;60419;48.880;18.036;2022-12-07T12:53:32;98710.72;;;3.51;60.99
72428;BME280;60419;48.880;18.036;2022-12-07T12:59:30;98695.69;;;4.07;60.82
72428;BME280;60419;48.880;18.036;2022-12-07T13:07:54;98708.53;;;3.99;59.52
72428;BME280;60419;48.880;18.036;2022-12-07T13:10:43;98717.31;;;4.20;59.66
72428;BME280;60419;48.880;18.036;2022-12-07T13:13:31;98713.25;;;4.33;59.09
72428;BME280;60419;48.880;18.036;2022-12-07T13:19:21;98714.94;;;4.03;57.96
72428;BME280;60419;48.880;18.036;2022-12-07T13:25:33;98716.28;;;4.06;58.56
72428;BME280;60419;48.880;18.036;2022-12-07T13:28:21;98721.06;;;4.19;59.41
72428;BME280;60419;48.880;18.036;2022-12-07T13:31:15;98719.75;;;4.07;58.75
72428;BME280;60419;48.880;18.036;2022-12-07T13:34:05;98727.00;;;3.91;58.50
72428;BME280;60419;48.880;18.036;2022-12-07T13:37:29;98729.09;;;4.14;58.82
72428;BME280;60419;48.880;18.036;2022-12-07T13:40:22;98727.78;;;3.86;58.44
72428;BME280;60419;48.880;18.036;2022-12-07T13:43:15;98722.09;;;4.23;58.29
72428;BME280;60419;48.880;18.036;2022-12-07T13:46:11;98726.63;;;4.33;58.76
72428;BME280;60419;48.880;18.036;2022-12-07T13:49:02;98730.19;;;3.88;59.11
72428;BME280;60419;48.880;18.036;2022-12-07T13:51:48;98727.25;;;3.84;59.95
72428;BME280;60419;48.880;18.036;2022-12-07T13:54:43;98720.53;;;4.07;59.81
72428;BME280;60419;48.880;18.036;2022-12-07T13:57:30;98722.44;;;4.01;59.89
72428;BME280;60419;48.880;18.036;2022-12-07T14:00:19;98726.19;;;3.80;59.81
72428;BME280;60419;48.880;18.036;2022-12-07T14:06:29;98722.19;;;3.88;59.99
72428;BME280;60419;48.880;18.036;2022-12-07T14:09:20;98722.44;;;3.76;60.15
72428;BME280;60419;48.880;18.036;2022-12-07T14:12:06;98725.41;;;3.54;60.69
72428;BME280;60419;48.880;18.036;2022-12-07T14:14:52;98716.31;;;3.50;61.10
72428;BME280;60419;48.880;18.036;2022-12-07T14:17:53;98716.31;;;3.75;59.90
72428;BME280;60419;48.880;18.036;2022-12-07T14:20:40;98729.38;;;3.82;59.66
72428;BME280;60419;48.880;18.036;2022-12-07T14:23:27;98733.13;;;3.71;60.61
72428;BME280;60419;48.880;18.036;2022-12-07T14:26:14;98735.56;;;3.72;60.17
72428;BME280;60419;48.880;18.036;2022-12-07T14:29:32;98728.88;;;3.80;60.18
72428;BME280;60419;48.880;18.036;2022-12-07T14:35:11;98729.91;;;4.04;60.26
72428;BME280;60419;48.880;18.036;2022-12-07T14:37:57;98733.13;;;3.96;60.94
72428;BME280;60419;48.880;18.036;2022-12-07T14:40:42;98726.69;;;4.08;61.34
72428;BME280;60419;48.880;18.036;2022-12-07T14:43:27;98720.84;;;3.95;61.66
72428;BME280;60419;48.880;18.036;2022-12-07T14:46:13;98725.34;;;4.10;61.11
72428;BME280;60419;48.880;18.036;2022-12-07T14:48:58;98735.25;;;3.84;63.03
72428;BME280;60419;48.880;18.036;2022-12-07T14:51:46;98733.91;;;4.07;61.49
72428;BME280;60419;48.880;18.036;2022-12-07T14:54:32;98732.88;;;3.88;62.58
72428;BME280;60419;48.880;18.036;2022-12-07T14:57:18;98733.38;;;3.79;63.92
72428;BME280;60419;48.880;18.036;2022-12-07T15:00:04;98734.47;;;3.68;64.89
72428;BME280;60419;48.880;18.036;2022-12-07T15:02:50;98732.88;;;3.82;64.31
72428;BME280;60419;48.880;18.036;2022-12-07T15:05:36;98736.88;;;3.90;64.77
72428;BME280;60419;48.880;18.036;2022-12-07T15:08:22;98734.44;;;4.09;64.62
72428;BME280;60419;48.880;18.036;2022-12-07T15:11:12;98731.25;;;3.76;64.93
72428;BME280;60419;48.880;18.036;2022-12-07T15:13:58;98725.91;;;3.56;65.89
72428;BME280;60419;48.880;18.036;2022-12-07T15:16:52;98718.44;;;3.58;65.58
72428;BME280;60419;48.880;18.036;2022-12-07T15:19:38;98726.19;;;3.65;65.38
72428;BME280;60419;48.880;18.036;2022-12-07T15:22:23;98732.34;;;3.65;64.69
72428;BME280;60419;48.880;18.036;2022-12-07T15:25:12;98726.75;;;3.62;63.94
72428;BME280;60419;48.880;18.036;2022-12-07T15:27:58;98735.00;;;3.50;64.26
72428;BME280;60419;48.880;18.036;2022-12-07T15:30:44;98708.28;;;3.39;64.30
72428;BME280;60419;48.880;18.036;2022-12-07T15:33:30;98741.69;;;3.78;63.65
72428;BME280;60419;48.880;18.036;2022-12-07T15:36:20;98742.50;;;3.68;63.31
72428;BME280;60419;48.880;18.036;2022-12-07T15:39:06;98745.41;;;3.77;63.04
72428;BME280;60419;48.880;18.036;2022-12-07T15:41:51;98746.50;;;3.91;62.59
72428;BME280;60419;48.880;18.036;2022-12-07T15:44:37;98743.25;;;4.10;62.27
72428;BME280;60419;48.880;18.036;2022-12-07T15:47:43;98751.81;;;4.01;62.09
72428;BME280;60419;48.880;18.036;2022-12-07T15:50:30;98752.09;;;3.90;63.23
72428;BME280;60419;48.880;18.036;2022-12-07T15:53:15;98759.31;;;3.79;63.19
72428;BME280;60419;48.880;18.036;2022-12-07T15:56:01;98733.94;;;3.76;63.09
72428;BME280;60419;48.880;18.036;2022-12-07T15:58:46;98764.13;;;3.67;63.87
72428;BME280;60419;48.880;18.036;2022-12-07T16:01:31;98763.84;;;3.89;63.85
72428;BME280;60419;48.880;18.036;2022-12-07T16:04:17;98760.03;;;4.41;70.65
72428;BME280;60419;48.880;18.036;2022-12-07T16:07:02;98756.06;;;4.13;62.77
72428;BME280;60419;48.880;18.036;2022-12-07T16:09:48;98753.72;;;3.65;64.71
72428;BME280;60419;48.880;18.036;2022-12-07T16:12:34;98757.44;;;3.74;64.51
72428;BME280;60419;48.880;18.036;2022-12-07T16:15:19;98755.59;;;3.59;64.34
72428;BME280;60419;48.880;18.036;2022-12-07T16:18:06;98765.19;;;3.50;64.77
72428;BME280;60419;48.880;18.036;2022-12-07T16:20:51;98755.06;;;3.73;64.56
72428;BME280;60419;48.880;18.036;2022-12-07T16:23:37;98759.28;;;3.48;65.24
72428;BME280;60419;48.880;18.036;2022-12-07T16:26:22;98754.50;;;3.55;65.42
72428;BME280;60419;48.880;18.036;2022-12-07T16:29:11;98750.25;;;3.59;65.41
72428;BME280;60419;48.880;18.036;2022-12-07T16:31:57;98729.91;;;3.84;64.38
72428;BME280;60419;48.880;18.036;2022-12-07T16:34:42;98754.25;;;3.82;64.89
72428;BME280;60419;48.880;18.036;2022-12-07T16:37:27;98746.25;;;3.77;65.00
72428;BME280;60419;48.880;18.036;2022-12-07T16:40:13;98754.50;;;4.01;65.36
72428;BME280;60419;48.880;18.036;2022-12-07T16:42:58;98754.25;;;3.93;65.32
72428;BME280;60419;48.880;18.036;2022-12-07T16:45:45;98759.84;;;3.96;64.28